createdAt,value
2023-03-26T00:01:12.740Z,98216.50
2023-03-26T00:03:39.243Z,98213.00
2023-03-26T00:06:05.603Z,98219.88
2023-03-26T00:08:31.951Z,98221.81
2023-03-26T00:10:59.538Z,98228.84
2023-03-26T00:13:27.276Z,98223.75
2023-03-26T00:15:53.804Z,98222.63
2023-03-26T00:18:20.294Z,98228.41
2023-03-26T00:20:46.609Z,98222.50
2023-03-26T00:23:12.933Z,98222.38
2023-03-26T00:25:39.311Z,98218.84
2023-03-26T00:28:05.658Z,98215.31
2023-03-26T00:30:32.033Z,98223.72
2023-03-26T00:32:58.412Z,98209.66
2023-03-26T00:35:24.745Z,98210.13
2023-03-26T00:37:51.176Z,98208.84
2023-03-26T00:40:17.614Z,98205.34
2023-03-26T00:42:43.925Z,98199.44
2023-03-26T00:45:10.265Z,98201.69
2023-03-26T00:47:36.663Z,98190.00
2023-03-26T00:50:03.249Z,98193.53
2023-03-26T00:52:29.586Z,98189.53
2023-03-26T00:54:55.951Z,98181.25
2023-03-26T00:57:34.466Z,98182.84
2023-03-26T01:00:02.189Z,98174.56
2023-03-26T01:02:28.603Z,98171.41
2023-03-26T01:04:55.022Z,98174.78
2023-03-26T01:07:21.542Z,98168.88
2023-03-26T01:09:47.888Z,98158.31
2023-03-26T01:12:14.220Z,98171.91
2023-03-26T01:14:40.800Z,98164.41
2023-03-26T01:17:07.259Z,98164.75
2023-03-26T01:19:33.656Z,98162.72
2023-03-26T01:22:00.040Z,98169.25
2023-03-26T01:24:26.397Z,98164.94
2023-03-26T01:26:52.802Z,98162.56
2023-03-26T01:29:19.198Z,98162.44
2023-03-26T01:31:45.523Z,98162.78
2023-03-26T01:34:12.123Z,98165.03
2023-03-26T01:36:38.474Z,98171.59
2023-03-26T01:39:04.792Z,98164.09
2023-03-26T01:41:31.121Z,98159.47
2023-03-26T01:43:57.484Z,98166.03
2023-03-26T01:46:23.838Z,98162.50
2023-03-26T01:48:50.182Z,98172.09
2023-03-26T01:51:16.576Z,98160.00
2023-03-26T01:53:42.897Z,98157.94
2023-03-26T01:56:09.253Z,98159.06
2023-03-26T01:58:35.633Z,98164.84
2023-03-26T02:01:01.996Z,98157.34
2023-03-26T02:03:28.472Z,98157.66
2023-03-26T02:05:55.210Z,98164.25
2023-03-26T02:08:21.709Z,98162.63
2023-03-26T02:10:48.494Z,98161.41
2023-03-26T02:13:14.875Z,98167.63
2023-03-26T02:15:41.224Z,98174.63
2023-03-26T02:18:07.555Z,98173.84
2023-03-26T02:20:34.131Z,98166.00
2023-03-26T02:23:00.592Z,98151.63
2023-03-26T02:25:27.977Z,98144.28
2023-03-26T02:27:56.895Z,98140.31
2023-03-26T02:30:23.350Z,98145.75
2023-03-26T02:32:50.238Z,98132.50
2023-03-26T02:35:16.839Z,98136.34
2023-03-26T02:37:43.196Z,98130.13
2023-03-26T02:40:14.806Z,98133.47
2023-03-26T02:42:43.168Z,98130.75
2023-03-26T02:45:09.704Z,98131.91
2023-03-26T02:48:14.459Z,98137.19
2023-03-26T02:50:50.510Z,98142.94
2023-03-26T02:53:28.621Z,98142.16
2023-03-26T02:56:08.226Z,98149.03
2023-03-26T02:58:42.054Z,98161.03
2023-03-26T03:01:08.564Z,98153.25
2023-03-26T03:03:42.767Z,98150.06
2023-03-26T03:06:26.812Z,98146.88
2023-03-26T03:08:57.219Z,98152.16
2023-03-26T03:11:35.657Z,98139.38
2023-03-26T03:14:02.048Z,98148.66
2023-03-26T03:16:29.757Z,98146.72
2023-03-26T03:18:58.790Z,98149.44
2023-03-26T03:21:34.277Z,98145.81
2023-03-26T03:24:00.741Z,98148.19
2023-03-26T03:26:30.714Z,98152.03
2023-03-26T03:29:02.549Z,98139.13
2023-03-26T03:31:29.186Z,98151.56
2023-03-26T03:34:01.913Z,98143.72
2023-03-26T03:36:31.308Z,98149.50
2023-03-26T03:39:04.370Z,98145.19
2023-03-26T03:41:31.512Z,98139.78
2023-03-26T03:44:00.638Z,98144.38
2023-03-26T03:46:29.562Z,98141.22
2023-03-26T03:48:56.016Z,98145.88
2023-03-26T03:51:30.167Z,98148.09
2023-03-26T03:53:59.101Z,98145.69
2023-03-26T03:56:54.409Z,98151.00
2023-03-26T03:59:37.328Z,98149.41
2023-03-26T04:02:06.833Z,98153.56
2023-03-26T04:04:40.078Z,98166.38
2023-03-26T04:07:10.307Z,98160.13
2023-03-26T04:09:56.675Z,98144.03
2023-03-26T04:12:24.835Z,98152.19
2023-03-26T04:15:00.560Z,98144.34
2023-03-26T04:17:27.043Z,98147.41
2023-03-26T04:19:55.340Z,98147.72
2023-03-26T04:22:25.733Z,98149.63
2023-03-26T04:24:55.970Z,98154.28
2023-03-26T04:27:28.521Z,98140.72
2023-03-26T04:30:03.059Z,98142.63
2023-03-26T04:32:30.415Z,98148.06
2023-03-26T04:34:56.967Z,98142.63
2023-03-26T04:37:24.981Z,98143.72
2023-03-26T04:40:00.486Z,98154.94
2023-03-26T04:42:49.563Z,98154.16
2023-03-26T04:45:29.666Z,98163.38
2023-03-26T04:47:56.270Z,98162.59
2023-03-26T04:50:22.771Z,98159.09
2023-03-26T04:52:49.425Z,98162.16
2023-03-26T04:55:35.696Z,98166.59
2023-03-26T04:58:09.364Z,98165.78
2023-03-26T05:00:54.589Z,98164.53
2023-03-26T05:03:21.251Z,98159.88
2023-03-26T05:05:48.662Z,98159.09
2023-03-26T05:08:15.937Z,98165.31
2023-03-26T05:10:42.526Z,98160.22
2023-03-26T05:13:13.530Z,98156.72
2023-03-26T05:15:45.749Z,98151.63
2023-03-26T05:18:18.535Z,98159.75
2023-03-26T05:20:50.764Z,98151.63
2023-03-26T05:23:17.515Z,98154.66
2023-03-26T05:25:49.812Z,98153.84
2023-03-26T05:28:19.672Z,98158.81
2023-03-26T05:31:06.247Z,98158.47
2023-03-26T05:33:36.327Z,98149.06
2023-03-26T05:36:07.156Z,98146.69
2023-03-26T05:38:33.594Z,98140.78
2023-03-26T05:41:01.644Z,98156.28
2023-03-26T05:43:28.454Z,98152.78
2023-03-26T05:46:12.535Z,98157.72
2023-03-26T05:48:38.988Z,98165.06
2023-03-26T05:51:05.702Z,98167.78
2023-03-26T05:53:32.728Z,98171.63
2023-03-26T05:56:31.405Z,98167.31
2023-03-26T05:59:29.759Z,98170.66
2023-03-26T06:02:15.133Z,98159.81
2023-03-26T06:05:00.081Z,98165.59
2023-03-26T06:07:26.499Z,98172.09
2023-03-26T06:10:07.804Z,98176.44
2023-03-26T06:12:34.232Z,98176.88
2023-03-26T06:15:00.570Z,98185.34
2023-03-26T06:17:39.838Z,98179.94
2023-03-26T06:20:26.443Z,98177.53
2023-03-26T06:22:54.144Z,98180.25
2023-03-26T06:25:38.944Z,98174.38
2023-03-26T06:28:20.898Z,98165.88
2023-03-26T06:31:10.322Z,98161.13
2023-03-26T06:33:41.862Z,98157.75
2023-03-26T06:36:10.050Z,98168.59
2023-03-26T06:38:37.204Z,98163.66
2023-03-26T06:41:05.636Z,98163.66
2023-03-26T06:43:52.212Z,98166.84
2023-03-26T06:46:37.233Z,98163.00
2023-03-26T06:49:22.069Z,98173.84
2023-03-26T06:52:08.763Z,98163.50
2023-03-26T06:55:01.205Z,98165.06
2023-03-26T06:57:53.920Z,98160.44
2023-03-26T07:00:43.712Z,98155.81
2023-03-26T07:03:28.630Z,98151.50
2023-03-26T07:06:18.029Z,98153.44
2023-03-26T07:09:03.257Z,98152.94
2023-03-26T07:11:48.108Z,98156.00
2023-03-26T07:14:34.520Z,98159.97
2023-03-26T07:17:10.481Z,98163.16
2023-03-26T07:19:59.691Z,98151.50
2023-03-26T07:22:26.255Z,98158.19
2023-03-26T07:25:31.404Z,98155.50
2023-03-26T07:28:06.777Z,98157.88
2023-03-26T07:31:08.249Z,98154.34
2023-03-26T07:33:39.449Z,98156.28
2023-03-26T07:36:20.797Z,98154.84
2023-03-26T07:39:03.605Z,98152.25
2023-03-26T07:41:56.480Z,98158.16
2023-03-26T07:45:01.140Z,98158.63
2023-03-26T07:47:39.323Z,98156.72
2023-03-26T07:50:23.927Z,98162.28
2023-03-26T07:53:07.989Z,98151.91
2023-03-26T07:55:52.205Z,98166.28
2023-03-26T07:58:36.671Z,98150.47
2023-03-26T08:01:31.839Z,98155.59
2023-03-26T08:03:58.670Z,98152.53
2023-03-26T08:07:08.760Z,98155.72
2023-03-26T08:09:55.134Z,98148.84
2023-03-26T08:12:32.968Z,98141.31
2023-03-26T08:14:59.461Z,98137.47
2023-03-26T08:17:25.791Z,98136.03
2023-03-26T08:19:52.146Z,98130.72
2023-03-26T08:22:18.590Z,98134.41
2023-03-26T08:24:44.884Z,98131.34
2023-03-26T08:27:11.203Z,98125.59
2023-03-26T08:29:37.551Z,98135.31
2023-03-26T08:32:03.891Z,98127.78
2023-03-26T08:34:30.201Z,98123.63
2023-03-26T08:36:56.597Z,98124.53
2023-03-26T08:39:22.958Z,98123.22
2023-03-26T08:41:49.306Z,98132.63
2023-03-26T08:44:15.691Z,98122.69
2023-03-26T08:46:43.285Z,98118.19
2023-03-26T08:49:09.628Z,98114.47
2023-03-26T08:51:35.986Z,98119.25
2023-03-26T08:54:02.304Z,98122.53
2023-03-26T08:56:28.663Z,98118.06
2023-03-26T08:58:57.141Z,98120.56
2023-03-26T09:01:23.472Z,98120.34
2023-03-26T09:03:49.874Z,98124.44
2023-03-26T09:06:17.757Z,98124.25
2023-03-26T09:08:54.073Z,98122.91
2023-03-26T09:11:21.129Z,98121.94
2023-03-26T09:13:47.514Z,98118.97
2023-03-26T09:16:13.832Z,98106.00
2023-03-26T09:18:41.521Z,98109.66
2023-03-26T09:21:07.846Z,98105.91
2023-03-26T09:23:34.162Z,98108.09
2023-03-26T09:26:00.516Z,98105.50
2023-03-26T09:28:26.864Z,98100.97
2023-03-26T09:30:53.499Z,98099.16
2023-03-26T09:33:20.149Z,98087.25
2023-03-26T09:35:46.485Z,98087.84
2023-03-26T09:38:12.832Z,98086.00
2023-03-26T09:40:39.210Z,98071.41
2023-03-26T09:43:05.527Z,98074.25
2023-03-26T09:45:31.994Z,98072.41
2023-03-26T09:47:58.456Z,98073.34
2023-03-26T09:50:24.813Z,98075.84
2023-03-26T09:52:51.136Z,98080.25
2023-03-26T09:55:17.514Z,98075.72
2023-03-26T09:57:43.860Z,98071.19
2023-03-26T10:00:10.185Z,98072.06
2023-03-26T10:02:46.180Z,98077.28
2023-03-26T10:05:13.815Z,98077.06
2023-03-26T10:07:40.182Z,98079.53
2023-03-26T10:10:06.491Z,98071.81
2023-03-26T10:12:32.879Z,98082.50
2023-03-26T10:14:59.232Z,98074.44
2023-03-26T10:17:25.663Z,98073.06
2023-03-26T10:19:52.173Z,98081.03
2023-03-26T10:22:19.146Z,98063.63
2023-03-26T10:24:45.487Z,98057.94
2023-03-26T10:27:11.800Z,98049.88
2023-03-26T10:29:38.169Z,98055.78
2023-03-26T10:32:04.477Z,98053.94
2023-03-26T10:34:30.787Z,98052.91
2023-03-26T10:36:57.196Z,98050.38
2023-03-26T10:39:37.967Z,98053.22
2023-03-26T10:42:05.738Z,98036.94
2023-03-26T10:44:32.077Z,98044.44
2023-03-26T10:46:58.417Z,98039.06
2023-03-26T10:49:24.797Z,98026.69
2023-03-26T10:51:51.128Z,98041.31
2023-03-26T10:54:19.237Z,98042.72
2023-03-26T10:56:45.645Z,98033.47
2023-03-26T10:59:11.966Z,98029.72
2023-03-26T11:01:38.327Z,98027.88
2023-03-26T11:04:04.726Z,98020.22
2023-03-26T11:06:31.045Z,98025.41
2023-03-26T11:08:57.407Z,98032.59
2023-03-26T11:11:23.780Z,98026.84
2023-03-26T11:13:50.110Z,98029.00
2023-03-26T11:16:16.527Z,98028.69
2023-03-26T11:18:43.051Z,98021.03
2023-03-26T11:21:19.717Z,98021.94
2023-03-26T11:23:46.946Z,98027.91
2023-03-26T11:26:13.304Z,98015.94
2023-03-26T11:28:41.635Z,98016.00
2023-03-26T11:31:28.836Z,98017.31
2023-03-26T11:33:55.997Z,98010.00
2023-03-26T11:36:22.409Z,97981.31
2023-03-26T11:38:48.821Z,98002.75
2023-03-26T11:41:22.851Z,97988.38
2023-03-26T11:43:59.555Z,97993.59
2023-03-26T11:46:29.224Z,97978.06
2023-03-26T11:48:55.624Z,97969.59
2023-03-26T11:51:21.976Z,97958.72
2023-03-26T11:53:48.296Z,97955.28
2023-03-26T11:56:14.654Z,97955.38
2023-03-26T11:58:40.998Z,97948.03
2023-03-26T12:01:07.396Z,97942.31
2023-03-26T12:03:33.769Z,97927.56
2023-03-26T12:06:00.141Z,97925.69
2023-03-26T12:08:26.447Z,97935.09
2023-03-26T12:10:52.908Z,97920.38
2023-03-26T12:13:19.388Z,97922.38
2023-03-26T12:15:45.704Z,97915.00
2023-03-26T12:18:12.113Z,97916.69
2023-03-26T12:20:38.476Z,97908.19
2023-03-26T12:23:04.801Z,97903.13
2023-03-26T12:25:32.804Z,97895.06
2023-03-26T12:27:59.176Z,97902.53
2023-03-26T12:30:25.519Z,97884.25
2023-03-26T12:32:53.289Z,97888.19
2023-03-26T12:35:20.109Z,97893.38
2023-03-26T12:37:46.419Z,97879.75
2023-03-26T12:40:15.985Z,97878.22
2023-03-26T12:44:48.504Z,97870.88
2023-03-26T12:45:31.012Z,97870.94
2023-03-26T12:48:04.064Z,97862.00
2023-03-26T12:50:34.455Z,97853.78
2023-03-26T12:53:01.851Z,97846.41
2023-03-26T12:55:28.160Z,97846.47
2023-03-26T12:57:54.566Z,97844.59
2023-03-26T13:00:20.974Z,97844.69
2023-03-26T13:02:47.413Z,97838.47
2023-03-26T13:05:13.881Z,97838.09
2023-03-26T13:07:40.247Z,97837.00
2023-03-26T13:10:06.621Z,97831.94
2023-03-26T13:12:32.957Z,97830.38
2023-03-26T13:15:00.375Z,97838.66
2023-03-26T13:17:26.761Z,97830.50
2023-03-26T13:19:53.104Z,97832.84
2023-03-26T13:22:19.460Z,97830.19
2023-03-26T13:24:46.712Z,97824.34
2023-03-26T13:27:13.045Z,97831.81
2023-03-26T13:29:39.397Z,97826.38
2023-03-26T13:32:05.826Z,97825.63
2023-03-26T13:34:32.229Z,97828.75
2023-03-26T13:36:58.630Z,97823.53
2023-03-26T13:39:24.976Z,97811.78
2023-03-26T13:41:51.295Z,97803.19
2023-03-26T13:44:17.669Z,97818.84
2023-03-26T13:46:44.068Z,97818.13
2023-03-26T13:49:10.448Z,97821.69
2023-03-26T13:51:36.894Z,97816.63
2023-03-26T13:54:03.218Z,97816.66
2023-03-26T13:56:29.525Z,97811.25
2023-03-26T13:58:56.014Z,97813.25
2023-03-26T14:01:22.386Z,97809.75
2023-03-26T14:03:48.752Z,97807.44
2023-03-26T14:06:15.179Z,97819.19
2023-03-26T14:08:41.569Z,97808.28
2023-03-26T14:11:07.938Z,97813.00
2023-03-26T14:13:34.303Z,97806.78
2023-03-26T14:16:00.667Z,97818.16
2023-03-26T14:18:26.999Z,97799.38
2023-03-26T14:20:53.459Z,97803.31
2023-03-26T14:23:19.853Z,97794.75
2023-03-26T14:25:46.150Z,97797.88
2023-03-26T14:28:12.507Z,97791.63
2023-03-26T14:30:38.836Z,97795.56
2023-03-26T14:33:05.253Z,97800.69
2023-03-26T14:35:31.688Z,97788.91
2023-03-26T14:37:58.039Z,97776.44
2023-03-26T14:40:24.357Z,97787.38
2023-03-26T14:42:50.749Z,97780.34
2023-03-26T14:45:17.070Z,97782.69
2023-03-26T14:47:43.497Z,97784.69
2023-03-26T14:50:09.927Z,97787.06
2023-03-26T14:52:36.242Z,97782.00
2023-03-26T14:55:02.542Z,97775.69
2023-03-26T14:57:28.902Z,97775.34
2023-03-26T14:59:55.237Z,97770.66
2023-03-26T15:02:21.687Z,97770.31
2023-03-26T15:04:48.181Z,97767.56
2023-03-26T15:07:14.489Z,97764.84
2023-03-26T15:09:40.828Z,97766.81
2023-03-26T15:12:12.157Z,97768.78
2023-03-26T15:14:39.656Z,97760.56
2023-03-26T15:17:06.070Z,97761.69
2023-03-26T15:19:32.409Z,97752.69
2023-03-26T15:21:58.726Z,97753.47
2023-03-26T15:24:25.024Z,97759.75
2023-03-26T15:26:51.391Z,97746.84
2023-03-26T15:29:17.716Z,97753.13
2023-03-26T15:31:44.057Z,97746.88
2023-03-26T15:34:10.435Z,97744.94
2023-03-26T15:36:36.936Z,97749.22
2023-03-26T15:39:03.304Z,97746.50
2023-03-26T15:41:29.681Z,97746.88
2023-03-26T15:44:23.111Z,97746.47
2023-03-26T15:46:42.549Z,97749.59
2023-03-26T15:49:09.748Z,97744.91
2023-03-26T15:51:47.142Z,97746.84
2023-03-26T15:54:14.105Z,97747.25
2023-03-26T15:56:40.477Z,97733.16
2023-03-26T15:59:06.877Z,97741.75
2023-03-26T16:01:33.313Z,97735.84
2023-03-26T16:03:59.747Z,97729.56
2023-03-26T16:06:26.130Z,97736.22
2023-03-26T16:08:52.500Z,97733.44
2023-03-26T16:11:18.824Z,97729.88
2023-03-26T16:13:45.131Z,97733.44
2023-03-26T16:16:11.532Z,97733.81
2023-03-26T16:18:37.953Z,97732.59
2023-03-26T16:21:04.324Z,97736.50
2023-03-26T16:23:30.745Z,97725.09
2023-03-26T16:25:57.062Z,97738.00
2023-03-26T16:28:23.384Z,97726.63
2023-03-26T16:30:49.770Z,97728.59
2023-03-26T16:33:16.134Z,97729.34
2023-03-26T16:35:42.480Z,97726.19
2023-03-26T16:38:08.866Z,97722.22
2023-03-26T16:40:35.196Z,97723.38
2023-03-26T16:43:01.578Z,97730.41
2023-03-26T16:45:27.940Z,97728.41
2023-03-26T16:47:54.271Z,97722.97
2023-03-26T16:50:20.644Z,97730.75
2023-03-26T16:52:47.050Z,97733.09
2023-03-26T16:55:13.412Z,97731.13
2023-03-26T16:57:39.741Z,97735.00
2023-03-26T17:00:07.469Z,97740.06
2023-03-26T17:02:34.146Z,97736.13
2023-03-26T17:05:00.533Z,97740.75
2023-03-26T17:07:26.949Z,97735.66
2023-03-26T17:09:53.285Z,97735.25
2023-03-26T17:12:19.636Z,97735.56
2023-03-26T17:14:46.005Z,97735.19
2023-03-26T17:17:12.392Z,97735.91
2023-03-26T17:19:38.748Z,97730.03
2023-03-26T17:22:05.115Z,97737.03
2023-03-26T17:24:31.451Z,97753.84
2023-03-26T17:27:29.770Z,97742.03
2023-03-26T17:29:56.253Z,97749.84
2023-03-26T17:32:22.590Z,97745.16
2023-03-26T17:34:48.977Z,97743.56
2023-03-26T17:37:15.375Z,97749.44
2023-03-26T17:39:41.710Z,97741.19
2023-03-26T17:42:08.096Z,97746.22
2023-03-26T17:44:34.422Z,97747.38
2023-03-26T17:47:00.726Z,97744.22
2023-03-26T17:49:27.104Z,97739.91
2023-03-26T17:51:53.431Z,97743.00
2023-03-26T17:54:19.751Z,97736.72
2023-03-26T17:56:46.142Z,97748.03
2023-03-26T17:59:12.617Z,97743.31
2023-03-26T18:01:39.038Z,97750.72
2023-03-26T18:04:05.424Z,97745.63
2023-03-26T18:06:31.746Z,97751.84
2023-03-26T18:08:58.085Z,97753.38
2023-03-26T18:11:24.446Z,97750.22
2023-03-26T18:13:50.771Z,97756.06
2023-03-26T18:16:17.168Z,97755.63
2023-03-26T18:18:43.533Z,97755.22
2023-03-26T18:21:09.863Z,97747.75
2023-03-26T18:23:36.176Z,97744.56
2023-03-26T18:26:03.017Z,97743.41
2023-03-26T18:28:29.405Z,97744.91
2023-03-26T18:30:55.867Z,97733.56
2023-03-26T18:33:22.279Z,97736.25
2023-03-26T18:35:48.607Z,97745.97
2023-03-26T18:38:15.017Z,97746.31
2023-03-26T18:40:41.365Z,97744.31
2023-03-26T18:43:07.674Z,97740.41
2023-03-26T18:45:34.023Z,97747.38
2023-03-26T18:48:00.463Z,97739.53
2023-03-26T18:50:26.800Z,97732.06
2023-03-26T18:52:53.112Z,97731.25
2023-03-26T18:55:19.491Z,97728.88
2023-03-26T18:57:45.821Z,97735.06
2023-03-26T19:00:12.149Z,97726.44
2023-03-26T19:02:38.593Z,97715.44
2023-03-26T19:05:04.970Z,97719.69
2023-03-26T19:07:31.282Z,97722.38
2023-03-26T19:09:57.637Z,97719.59
2023-03-26T19:12:23.962Z,97714.09
2023-03-26T19:14:50.293Z,97709.34
2023-03-26T19:17:16.677Z,97700.72
2023-03-26T19:19:42.994Z,97699.88
2023-03-26T19:22:09.326Z,97692.41
2023-03-26T19:24:35.708Z,97691.91
2023-03-26T19:27:02.020Z,97688.75
2023-03-26T19:29:28.423Z,97690.25
2023-03-26T19:31:54.802Z,97685.53
2023-03-26T19:34:21.138Z,97676.91
2023-03-26T19:36:47.480Z,97669.09
2023-03-26T19:39:17.352Z,97671.41
2023-03-26T19:41:47.972Z,97671.34
2023-03-26T19:44:14.302Z,97662.72
2023-03-26T19:46:53.656Z,97654.13
2023-03-26T19:49:28.438Z,97655.63
2023-03-26T19:51:54.892Z,97653.25
2023-03-26T19:54:21.280Z,97645.44
2023-03-26T19:56:47.714Z,97642.66
2023-03-26T19:59:14.046Z,97634.81
2023-03-26T20:01:40.417Z,97621.94
2023-03-26T20:04:06.934Z,97617.66
2023-03-26T20:06:43.249Z,97620.34
2023-03-26T20:09:10.414Z,97617.16
2023-03-26T20:11:36.732Z,97605.81
2023-03-26T20:14:03.062Z,97605.75
2023-03-26T20:16:29.441Z,97595.56
2023-03-26T20:18:55.781Z,97590.84
2023-03-26T20:21:22.122Z,97589.63
2023-03-26T20:23:48.482Z,97580.22
2023-03-26T20:26:14.867Z,97573.88
2023-03-26T20:28:48.382Z,97578.97
2023-03-26T20:31:15.160Z,97572.22
2023-03-26T20:33:41.493Z,97564.41
2023-03-26T20:36:07.852Z,97557.75
2023-03-26T20:38:39.352Z,97557.75
2023-03-26T20:41:06.392Z,97542.09
2023-03-26T20:43:32.707Z,97533.94
2023-03-26T20:45:59.079Z,97530.75
2023-03-26T20:48:25.401Z,97531.50
2023-03-26T20:50:51.740Z,97524.03
2023-03-26T20:53:18.128Z,97533.72
2023-03-26T20:55:44.454Z,97533.66
2023-03-26T20:58:10.780Z,97530.88
2023-03-26T21:00:37.303Z,97540.56
2023-03-26T21:03:03.809Z,97541.28
2023-03-26T21:05:30.174Z,97542.00
2023-03-26T21:07:56.681Z,97545.88
2023-03-26T21:10:22.993Z,97549.31
2023-03-26T21:12:49.390Z,97557.09
2023-03-26T21:15:23.030Z,97548.81
2023-03-26T21:17:50.171Z,97552.28
2023-03-26T21:20:16.591Z,97551.06
2023-03-26T21:22:42.932Z,97547.91
2023-03-26T21:25:09.255Z,97540.47
2023-03-26T21:27:35.633Z,97537.69
2023-03-26T21:30:01.957Z,97534.50
2023-03-26T21:32:28.319Z,97532.13
2023-03-26T21:37:23.915Z,97535.16
2023-03-26T21:39:50.239Z,97541.34
2023-03-26T21:42:16.601Z,97535.44
2023-03-26T21:44:42.946Z,97540.47
2023-03-26T21:47:09.908Z,97543.91
2023-03-26T21:49:36.426Z,97545.06
2023-03-26T21:52:02.726Z,97544.19
2023-03-26T21:54:29.044Z,97546.19
2023-03-26T21:56:55.443Z,97547.34
2023-03-26T21:59:21.781Z,97546.56
2023-03-26T22:01:48.156Z,97546.19
2023-03-26T22:04:14.548Z,97531.00
2023-03-26T22:06:40.867Z,97529.84
2023-03-26T22:09:07.219Z,97525.13
2023-03-26T22:11:33.573Z,97522.78
2023-03-26T22:13:59.893Z,97519.19
2023-03-26T22:16:26.225Z,97519.09
2023-03-26T22:18:52.620Z,97520.25
2023-03-26T22:21:18.941Z,97513.59
2023-03-26T22:23:45.255Z,97519.41
2023-03-26T22:26:11.598Z,97504.56
2023-03-26T22:28:37.904Z,97502.19
2023-03-26T22:31:04.318Z,97507.22
2023-03-26T22:33:30.712Z,97504.84
2023-03-26T22:35:57.088Z,97504.06
2023-03-26T22:38:23.458Z,97504.00
2023-03-26T22:40:49.812Z,97493.81
2023-03-26T22:43:16.145Z,97488.38
2023-03-26T22:45:42.476Z,97487.16
2023-03-26T22:48:09.028Z,97481.25
2023-03-26T22:50:35.377Z,97473.44
2023-03-26T22:53:01.753Z,97483.13
2023-03-26T22:55:29.735Z,97482.31
2023-03-26T22:57:56.411Z,97474.84
2023-03-26T23:00:22.802Z,97468.63
2023-03-26T23:02:49.227Z,97468.19
2023-03-26T23:05:15.551Z,97465.38
2023-03-26T23:07:41.919Z,97468.47
2023-03-26T23:10:08.279Z,97471.13
2023-03-26T23:12:34.590Z,97467.19
2023-03-26T23:15:00.973Z,97458.13
2023-03-26T23:17:27.385Z,97465.97
2023-03-26T23:19:53.714Z,97469.41
2023-03-26T23:22:20.064Z,97472.91
2023-03-26T23:24:46.428Z,97472.47
2023-03-26T23:27:12.831Z,97460.34
2023-03-26T23:29:39.155Z,97465.78
2023-03-26T23:32:24.166Z,97468.88
2023-03-26T23:34:52.267Z,97465.31
2023-03-26T23:37:19.168Z,97476.19
2023-03-26T23:39:45.497Z,97481.53
2023-03-26T23:42:11.886Z,97477.25
2023-03-26T23:44:38.241Z,97483.84
2023-03-26T23:47:04.569Z,97480.69
2023-03-26T23:49:30.920Z,97491.91
2023-03-26T23:51:57.302Z,97489.56
2023-03-26T23:54:23.611Z,97484.91
2023-03-26T23:56:50.024Z,97483.34
2023-03-26T23:59:16.634Z,97482.56
